Time;durP1;ratioP1;P1;durP2;ratioP2;P2;SDS_P1;SDS_P2;PMS_P1;PMS_P2;Temp;Humidity;BMP_temperature;BMP_pressure;BME280_temperature;BME280_humidity;BME280_pressure;Samples;Min_cycle;Max_cycle;Signal;HPM_P1;HPM_P2
2023/04/25 06:24:36;;;;;;;;;;;;;;;20.67;38.16;94966.94;10539761;27;1989;-60
2023/04/25 06:29:36;;;;;;;;;;;;;;;20.66;38.04;94966.16;10509426;28;1960;-60
2023/04/25 06:34:37;;;;;;;;;;;;;;;20.67;38.07;94975.59;10515241;28;1994;-58
2023/04/25 06:39:37;;;;;;;;;;;;;;;20.67;38.14;94972.97;10498872;28;2220;-60
2023/04/25 06:44:37;;;;;;;;;;;;;;;20.67;38.34;94977.47;10511783;28;2237;-60
2023/04/25 06:49:38;;;;;;;;;;;;;;;20.64;38.36;94968.31;10513840;28;2321;-60
2023/04/25 06:54:38;;;;;;;;;;;;;;;20.64;38.51;94973.56;10517732;28;1993;-60
2023/04/25 06:59:38;;;;;;;;;;;;;;;20.63;38.41;94974.63;10514591;28;1960;-60
2023/04/25 07:04:38;;;;;;;;;;;;;;;20.62;38.38;94967.81;10515712;28;1981;-60
2023/04/25 07:09:39;;;;;;;;;;;;;;;20.61;38.41;94976.78;10504118;28;1980;-59
2023/04/25 07:14:39;;;;;;;;;;;;;;;20.59;38.54;94972.84;10510331;28;2053;-61
2023/04/25 07:19:40;;;;;;;;;;;;;;;20.57;38.65;94981.06;10508935;28;2087;-61
2023/04/25 07:24:41;;;;;;;;;;;;;;;20.56;38.70;94970.81;10514787;28;1885;-61
2023/04/25 07:29:42;;;;;;;;;;;;;;;20.52;38.99;94965.38;10513761;28;1937;-61
2023/04/25 07:34:42;;;;;;;;;;;;;;;20.49;38.86;94960.69;10473398;28;2010;-61
2023/04/25 07:39:42;;;;;;;;;;;;;;;20.47;39.14;94964.66;10482790;28;1971;-60
2023/04/25 07:44:43;;;;;;;;;;;;;;;20.43;38.83;94961.06;10485294;28;1992;-61
2023/04/25 07:49:45;;;;;;;;;;;;;;;20.45;38.95;94956.28;10485851;28;2315;-61
2023/04/25 07:54:47;;;;;;;;;;;;;;;20.41;38.98;94961.34;10498501;28;1959;-60
2023/04/25 07:59:47;;;;;;;;;;;;;;;20.40;38.91;94956.38;10482325;28;1976;-61
2023/04/25 08:04:49;;;;;;;;;;;;;;;20.40;38.68;94951.91;10483903;28;1909;-61
2023/04/25 08:09:49;;;;;;;;;;;;;;;20.35;39.09;94948.56;10483803;28;1996;-61
2023/04/25 08:14:49;;;;;;;;;;;;;;;20.34;38.86;94945.16;10485841;28;1944;-60
2023/04/25 08:19:50;;;;;;;;;;;;;;;20.31;39.04;94948.38;10481508;28;2285;-61
2023/04/25 08:24:52;;;;;;;;;;;;;;;20.28;39.11;94951.56;10478163;28;1962;-60
2023/04/25 08:29:53;;;;;;;;;;;;;;;20.27;39.15;94957.94;10485145;28;1924;-59
2023/04/25 08:34:55;;;;;;;;;;;;;;;20.25;39.32;94955.59;10483493;28;1965;-60
2023/04/25 08:39:56;;;;;;;;;;;;;;;20.24;39.05;94955.84;10492938;28;2010;-60
2023/04/25 08:44:56;;;;;;;;;;;;;;;20.19;39.20;94955.94;10477257;28;2160;-60
2023/04/25 08:49:56;;;;;;;;;;;;;;;20.20;39.12;94968.03;10483787;28;2273;-60
2023/04/25 08:54:57;;;;;;;;;;;;;;;20.18;39.34;94963.03;10467620;28;1988;-60
2023/04/25 08:59:57;;;;;;;;;;;;;;;20.17;39.33;94958.06;10482427;28;2052;-61
2023/04/25 09:04:58;;;;;;;;;;;;;;;20.16;39.36;94956.50;10453922;28;2031;-60
2023/04/25 09:10:01;;;;;;;;;;;;;;;20.15;39.50;94957.59;10457510;28;1913;-60
2023/04/25 09:15:05;;;;;;;;;;;;;;;20.13;39.42;94960.47;10475595;28;1972;-60
2023/04/25 09:20:07;;;;;;;;;;;;;;;20.12;39.49;94963.41;10478380;28;2020;-60
2023/04/25 09:25:09;;;;;;;;;;;;;;;20.14;39.80;94969.16;10481269;28;1929;-60
2023/04/25 09:30:09;;;;;;;;;;;;;;;20.11;39.79;94967.88;10484119;28;1901;-61
2023/04/25 09:35:11;;;;;;;;;;;;;;;20.10;40.00;94966.34;10471375;28;1894;-60
2023/04/25 09:40:12;;;;;;;;;;;;;;;20.11;39.74;94970.50;10483099;28;1974;-60
2023/04/25 09:45:13;;;;;;;;;;;;;;;20.09;40.10;94974.53;10480389;28;1980;-60
2023/04/25 09:50:15;;;;;;;;;;;;;;;20.09;40.18;94974.53;10478730;28;2210;-60
2023/04/25 09:55:15;;;;;;;;;;;;;;;20.08;39.93;94975.59;10477113;28;2077;-61
2023/04/25 10:00:16;;;;;;;;;;;;;;;20.08;40.01;94965.06;10465678;28;1938;-60
2023/04/25 10:05:19;;;;;;;;;;;;;;;20.11;40.35;94970.50;10479924;28;2163;-60
2023/04/25 10:10:25;;;;;;;;;;;;;;;20.08;40.23;94965.06;10477961;28;1961;-60
2023/04/25 10:15:25;;;;;;;;;;;;;;;20.08;40.08;94965.06;10480579;28;1905;-61
2023/04/25 10:20:26;;;;;;;;;;;;;;;20.08;40.24;94965.06;10461864;28;2012;-61
2023/04/25 10:25:27;;;;;;;;;;;;;;;20.08;40.17;94960.59;10474626;28;1960;-60
2023/04/25 10:30:28;;;;;;;;;;;;;;;20.08;40.16;94957.16;10493147;28;1872;-60
2023/04/25 10:35:29;;;;;;;;;;;;;;;20.06;40.27;94964.56;10473449;28;1956;-60
2023/04/25 10:40:29;;;;;;;;;;;;;;;20.05;40.21;94976.94;10478417;28;2052;-60
2023/04/25 10:45:31;;;;;;;;;;;;;;;20.09;40.12;94990.31;10476015;28;1908;-60
2023/04/25 10:50:39;;;;;;;;;;;;;;;20.08;40.35;95004.53;10464571;28;2386;-60
2023/04/25 10:55:49;;;;;;;;;;;;;;;20.05;40.20;95008.50;10476411;28;1723;-60
2023/04/25 11:00:50;;;;;;;;;;;;;;;20.05;40.44;95015.63;10479512;28;2034;-59
2023/04/25 11:05:51;;;;;;;;;;;;;;;20.03;40.23;95028.28;10473264;28;1996;-63
2023/04/25 11:10:53;;;;;;;;;;;;;;;20.04;40.32;95035.09;10486196;28;2238;-61
2023/04/25 11:15:53;;;;;;;;;;;;;;;20.03;40.35;95044.06;10448870;28;2037;-60
2023/04/25 11:24:18;;;;;;;;;;;;;;;20.02;40.62;95059.06;10502618;27;1982;-60
2023/04/25 11:29:21;;;;;;;;;;;;;;;20.02;40.53;95066.19;10472554;28;1886;-60
2023/04/25 11:34:22;;;;;;;;;;;;;;;20.01;40.61;95068.03;10480185;28;1819;-61
2023/04/25 11:39:23;;;;;;;;;;;;;;;20.01;40.73;95067.25;10502919;28;2119;-60
2023/04/25 11:44:23;;;;;;;;;;;;;;;20.01;40.70;95062.75;10472916;28;1934;-60
2023/04/25 11:49:24;;;;;;;;;;;;;;;20.00;40.74;95077.00;10472572;28;2306;-60
2023/04/25 11:54:25;;;;;;;;;;;;;;;20.00;40.72;95081.47;10461999;28;8187;-60
2023/04/25 11:59:25;;;;;;;;;;;;;;;19.98;40.68;95091.50;10464843;28;8100;-63
2023/04/25 12:04:25;;;;;;;;;;;;;;;19.98;40.79;95099.38;10471885;28;7960;-62
2023/04/25 12:09:30;;;;;;;;;;;;;;;19.98;40.73;95107.28;10474428;28;1889;-61
2023/04/25 12:14:31;;;;;;;;;;;;;;;19.96;41.00;95112.03;10466359;28;8572;-62
2023/04/25 12:19:33;;;;;;;;;;;;;;;19.97;40.73;95113.63;10471247;28;8392;-61
2023/04/25 12:24:33;;;;;;;;;;;;;;;19.95;40.76;95102.56;10471870;28;8076;-61
2023/04/25 12:29:34;;;;;;;;;;;;;;;19.95;40.69;95115.72;10478002;28;1616;-59
2023/04/25 12:34:35;;;;;;;;;;;;;;;19.93;40.65;95102.06;10445233;28;5296;-61
2023/04/25 12:39:35;;;;;;;;;;;;;;;19.93;40.85;95116.00;10442427;28;2053;-61
2023/04/25 12:44:36;;;;;;;;;;;;;;;19.93;40.86;95107.34;10437438;28;1870;-61
2023/04/25 12:49:36;;;;;;;;;;;;;;;19.93;40.86;95112.59;10443746;28;5375;-61
2023/04/25 12:54:36;;;;;;;;;;;;;;;19.91;40.59;95123.41;10445404;28;2025;-61
2023/04/25 12:59:36;;;;;;;;;;;;;;;19.89;40.82;95128.16;10445834;28;1918;-61
2023/04/25 13:04:37;;;;;;;;;;;;;;;19.90;40.59;95136.84;10442436;28;1961;-62
2023/04/25 13:09:38;;;;;;;;;;;;;;;19.91;40.65;95143.66;10443866;28;1893;-62
2023/04/25 13:14:38;;;;;;;;;;;;;;;19.89;40.55;95145.78;10443542;28;2001;-61
2023/04/25 13:19:39;;;;;;;;;;;;;;;19.89;40.65;95153.69;10436838;28;1914;-61
2023/04/25 13:24:39;;;;;;;;;;;;;;;19.89;40.60;95154.47;10446333;28;5064;-61
2023/04/25 13:29:40;;;;;;;;;;;;;;;19.89;40.72;95159.75;10439003;28;2020;-61
2023/04/25 13:34:40;;;;;;;;;;;;;;;19.86;40.44;95167.41;10438354;28;1953;-61
2023/04/25 13:39:41;;;;;;;;;;;;;;;19.87;40.44;95177.66;10441082;28;1906;-61
2023/04/25 13:44:41;;;;;;;;;;;;;;;19.87;40.32;95166.34;10436894;28;2009;-61
2023/04/25 13:49:41;;;;;;;;;;;;;;;19.89;40.23;95180.00;10439188;28;2348;-61
2023/04/25 13:54:41;;;;;;;;;;;;;;;19.92;39.97;95179.44;10436460;28;1918;-62
2023/04/25 13:59:42;;;;;;;;;;;;;;;19.96;40.10;95180.44;10437310;28;1906;-61
2023/04/25 14:04:42;;;;;;;;;;;;;;;20.00;40.17;95186.69;10445439;28;2040;-60
2023/04/25 14:09:42;;;;;;;;;;;;;;;20.05;40.36;95192.66;10437226;28;1834;-61
2023/04/25 14:14:43;;;;;;;;;;;;;;;20.12;40.02;95192.31;10439716;28;1929;-62
2023/04/25 14:19:45;;;;;;;;;;;;;;;20.16;40.20;95188.84;10462623;28;1902;-61
2023/04/25 14:24:45;;;;;;;;;;;;;;;20.22;40.16;95200.09;10435580;28;5031;-60
2023/04/25 14:29:46;;;;;;;;;;;;;;;20.27;40.20;95200.06;10424269;28;1885;-61
2023/04/25 14:34:46;;;;;;;;;;;;;;;20.30;40.17;95199.47;10434147;28;2194;-62
2023/04/25 14:39:46;;;;;;;;;;;;;;;20.37;39.95;95199.91;10442253;28;1956;-61
2023/04/25 14:44:46;;;;;;;;;;;;;;;20.40;39.65;95201.97;10437523;28;2044;-62
2023/04/25 14:49:53;;;;;;;;;;;;;;;20.42;39.74;95201.69;10439038;28;2223;-62
2023/04/25 14:54:54;;;;;;;;;;;;;;;20.46;39.90;95203.47;10431673;28;1983;-62
2023/04/25 14:59:54;;;;;;;;;;;;;;;20.48;39.55;95208.44;10429535;28;1955;-62
2023/04/25 15:04:55;;;;;;;;;;;;;;;20.49;39.68;95205.50;10438906;28;2206;-62
2023/04/25 15:09:56;;;;;;;;;;;;;;;20.51;39.64;95219.19;10434545;28;1951;-61
2023/04/25 15:14:56;;;;;;;;;;;;;;;20.55;39.58;95227.28;10429258;28;2087;-61
2023/04/25 15:19:57;;;;;;;;;;;;;;;20.56;39.75;95240.19;10467360;28;1959;-62
2023/04/25 15:24:57;;;;;;;;;;;;;;;20.58;39.52;95232.78;10435987;28;4453;-62
2023/04/25 15:29:57;;;;;;;;;;;;;;;20.60;39.66;95243.81;10436815;28;2151;-61
2023/04/25 15:34:57;;;;;;;;;;;;;;;20.60;39.77;95243.81;10440706;28;1984;-62
2023/04/25 15:40:10;;;;;;;;;;;;;;;20.61;39.66;95234.81;10443222;28;2022;-61
2023/04/25 15:45:11;;;;;;;;;;;;;;;20.61;39.47;95247.22;10438592;28;2029;-61
2023/04/25 15:50:11;;;;;;;;;;;;;;;20.58;39.70;95256.47;10435604;28;2266;-59
2023/04/25 15:55:12;;;;;;;;;;;;;;;20.58;39.39;95260.97;10441177;28;1896;-61
2023/04/25 16:00:13;;;;;;;;;;;;;;;20.56;39.33;95258.63;10434676;28;2199;-61
2023/04/25 16:05:15;;;;;;;;;;;;;;;20.58;39.06;95266.22;10436583;28;1988;-59
2023/04/25 16:10:20;;;;;;;;;;;;;;;20.52;39.41;95273.41;10443226;28;2178;-61
2023/04/25 16:15:20;;;;;;;;;;;;;;;20.50;39.49;95274.75;10439466;28;2205;-61
2023/04/25 16:20:20;;;;;;;;;;;;;;;20.45;39.35;95275.59;10477582;28;1946;-62
2023/04/25 16:25:21;;;;;;;;;;;;;;;20.43;39.85;95274.31;10443917;28;4473;-61
2023/04/25 16:30:21;;;;;;;;;;;;;;;20.41;39.91;95277.25;10442872;28;1923;-61
2023/04/25 16:35:22;;;;;;;;;;;;;;;20.40;40.11;95278.31;10445614;28;1950;-59
2023/04/25 16:40:22;;;;;;;;;;;;;;;20.39;39.77;95282.00;10441618;28;1983;-61
2023/04/25 16:45:23;;;;;;;;;;;;;;;20.36;40.16;95279.94;10436173;28;1877;-61
2023/04/25 16:50:23;;;;;;;;;;;;;;;20.39;40.02;95282.00;10447876;28;2314;-62
2023/04/25 16:55:23;;;;;;;;;;;;;;;20.39;39.93;95287.28;10441730;28;2101;-61
2023/04/25 17:00:24;;;;;;;;;;;;;;;20.38;40.15;95293.59;10434749;28;1906;-61
2023/04/25 17:05:26;;;;;;;;;;;;;;;20.40;40.22;95291.47;10443861;28;1876;-62
2023/04/25 17:10:26;;;;;;;;;;;;;;;20.40;40.17;95298.59;10444064;28;2078;-61
2023/04/25 17:15:26;;;;;;;;;;;;;;;20.39;40.49;95315.44;10444211;28;1881;-61
2023/04/25 17:20:27;;;;;;;;;;;;;;;20.37;40.30;95313.09;10443942;28;1914;-61
2023/04/25 17:25:27;;;;;;;;;;;;;;;20.37;40.22;95326.25;10440028;28;4692;-61
2023/04/25 17:30:27;;;;;;;;;;;;;;;20.37;39.99;95338.63;10439945;28;1874;-61
2023/04/25 17:41:06;;;;;;;;;;;;;;;20.35;40.24;95343.41;10373118;28;3946;-59
2023/04/25 17:46:28;;;;;;;;;;;;;;;20.30;40.13;95349.50;10343956;28;3805;-59
2023/04/25 17:51:48;;;;;;;;;;;;;;;20.30;39.99;95359.25;10351094;28;2299;-61
2023/04/25 17:57:09;;;;;;;;;;;;;;;20.28;39.94;95362.16;10350539;28;1971;-61
2023/04/25 18:02:30;;;;;;;;;;;;;;;20.26;39.99;95359.00;10349442;28;2013;-61
2023/04/25 18:07:50;;;;;;;;;;;;;;;20.25;40.22;95375.88;10400418;28;2003;-61
2023/04/25 18:13:11;;;;;;;;;;;;;;;20.21;40.39;95396.72;10392544;28;1983;-61
2023/04/25 18:18:34;;;;;;;;;;;;;;;20.25;40.30;95408.25;10394010;28;1899;-61
2023/04/25 18:23:55;;;;;;;;;;;;;;;20.24;40.31;95411.94;10397368;28;1975;-61
2023/04/25 18:29:16;;;;;;;;;;;;;;;20.27;40.33;95419.28;10398056;28;1861;-60
2023/04/25 18:34:40;;;;;;;;;;;;;;;20.31;40.03;95424.78;10400906;28;1948;-59
2023/04/25 18:40:05;;;;;;;;;;;;;;;20.31;39.98;95424.78;10401074;28;1963;-59
2023/04/25 18:45:25;;;;;;;;;;;;;;;20.33;40.46;95440.28;10396848;28;1928;-61
2023/04/25 18:50:46;;;;;;;;;;;;;;;20.36;40.24;95450.28;10387123;28;1962;-61
2023/04/25 18:56:06;;;;;;;;;;;;;;;20.38;39.99;95461.31;10398384;28;2032;-61
2023/04/25 19:01:27;;;;;;;;;;;;;;;20.38;40.16;95464.69;10395520;28;1967;-60
2023/04/25 19:06:51;;;;;;;;;;;;;;;20.35;40.16;95467.91;10378589;28;1902;-61
2023/04/25 19:12:11;;;;;;;;;;;;;;;20.36;39.77;95461.56;10397394;28;1883;-59
2023/04/25 19:17:32;;;;;;;;;;;;;;;20.33;39.51;95470.03;10391742;28;2024;-58
2023/04/25 19:22:53;;;;;;;;;;;;;;;20.35;40.22;95475.00;10392057;28;2009;-61
2023/04/25 19:28:14;;;;;;;;;;;;;;;20.38;40.95;95472.59;10394304;28;1894;-61
2023/04/25 19:33:34;;;;;;;;;;;;;;;20.41;41.02;95474.69;10400094;28;1887;-61
2023/04/25 19:39:00;;;;;;;;;;;;;;;20.44;41.34;95487.31;10392479;28;1948;-61
2023/04/25 19:44:21;;;;;;;;;;;;;;;20.43;41.74;95483.09;10400576;28;1910;-60
2023/04/25 19:49:42;;;;;;;;;;;;;;;20.44;41.83;95482.03;10405362;28;1844;-61
2023/04/25 19:55:03;;;;;;;;;;;;;;;20.44;41.95;95476.78;10405197;28;1903;-61
2023/04/25 20:00:24;;;;;;;;;;;;;;;20.43;42.13;95479.66;10401140;28;2118;-61
2023/04/25 20:05:44;;;;;;;;;;;;;;;20.41;42.03;95474.69;10402421;28;1974;-61
2023/04/25 20:11:05;;;;;;;;;;;;;;;20.40;41.78;95469.72;10401855;28;1854;-61
2023/04/25 20:16:26;;;;;;;;;;;;;;;20.39;42.07;95466.28;10402537;28;1906;-60
2023/04/25 20:21:47;;;;;;;;;;;;;;;20.38;42.04;95469.97;10401525;28;1985;-61
2023/04/25 20:27:07;;;;;;;;;;;;;;;20.35;42.08;95473.16;10397195;28;1871;-61
2023/04/25 20:32:30;;;;;;;;;;;;;;;20.35;42.34;95478.44;10399458;28;1955;-61
2023/04/25 20:37:51;;;;;;;;;;;;;;;20.35;42.28;95485.53;10399348;28;2035;-60
2023/04/25 20:43:11;;;;;;;;;;;;;;;20.33;41.98;95496.34;10399580;28;1981;-61
2023/04/25 20:48:32;;;;;;;;;;;;;;;20.31;42.18;95493.22;10401915;28;1958;-61
2023/04/25 20:53:53;;;;;;;;;;;;;;;20.30;42.03;95493.50;10399491;28;1872;-61
2023/04/25 20:59:14;;;;;;;;;;;;;;;20.28;42.11;95497.19;10407398;28;1823;-62
2023/04/25 21:04:34;;;;;;;;;;;;;;;20.26;41.63;95495.88;10402858;28;1914;-62
2023/04/25 21:09:55;;;;;;;;;;;;;;;20.22;41.65;95494.88;10398559;28;1956;-61
2023/04/25 21:15:18;;;;;;;;;;;;;;;20.20;41.31;95500.41;10404346;28;1902;-62
2023/04/25 21:20:39;;;;;;;;;;;;;;;20.16;41.12;95507.25;10403399;28;1910;-62
2023/04/25 21:26:00;;;;;;;;;;;;;;;20.14;41.09;95500.69;10400989;28;1918;-62
2023/04/25 21:31:20;;;;;;;;;;;;;;;20.12;40.91;95510.72;10401526;28;1946;-61
2023/04/25 21:36:41;;;;;;;;;;;;;;;20.08;40.69;95504.44;10398653;28;1882;-62
2023/04/25 21:42:02;;;;;;;;;;;;;;;20.07;40.63;95508.13;10398800;28;1977;-62
2023/04/25 21:47:23;;;;;;;;;;;;;;;20.05;40.55;95515.53;10401613;28;1487;-61
2023/04/25 21:52:44;;;;;;;;;;;;;;;20.01;40.65;95520.53;10409831;28;1463;-62
2023/04/25 21:58:04;;;;;;;;;;;;;;;20.00;40.39;95499.75;10394126;28;1859;-62
2023/04/25 22:03:25;;;;;;;;;;;;;;;19.97;40.52;95502.97;10392993;28;1953;-62
2023/04/25 22:08:46;;;;;;;;;;;;;;;19.95;40.48;95507.69;10384596;28;1878;-61
2023/04/25 22:14:06;;;;;;;;;;;;;;;19.93;40.49;95526.38;10392350;28;1890;-61
2023/04/25 22:19:27;;;;;;;;;;;;;;;19.92;40.34;95529.28;10399142;28;2069;-62
2023/04/25 22:24:48;;;;;;;;;;;;;;;19.90;40.20;95528.78;10402006;28;1916;-62
2023/04/25 22:30:11;;;;;;;;;;;;;;;19.89;40.40;95532.47;10419838;28;1807;-62
2023/04/25 22:35:32;;;;;;;;;;;;;;;19.87;40.15;95530.09;10393861;28;1729;-61
2023/04/25 22:40:52;;;;;;;;;;;;;;;19.86;40.26;95527.75;10392565;28;1991;-61
2023/04/25 22:46:16;;;;;;;;;;;;;;;19.85;40.14;95534.06;10380665;28;1794;-62
2023/04/25 22:51:37;;;;;;;;;;;;;;;19.84;40.10;95543.03;10397398;28;2004;-62
2023/04/25 22:56:58;;;;;;;;;;;;;;;19.82;40.22;95548.56;10397585;28;1996;-62
2023/04/25 23:02:19;;;;;;;;;;;;;;;19.81;40.17;95549.63;10398168;28;1914;-62
2023/04/25 23:07:40;;;;;;;;;;;;;;;19.80;39.96;95549.91;10392292;28;1883;-62
2023/04/25 23:13:02;;;;;;;;;;;;;;;19.78;39.86;95546.75;10399118;28;2032;-62
2023/04/25 23:18:23;;;;;;;;;;;;;;;19.77;39.98;95555.69;10394773;28;1876;-62
2023/04/25 23:23:44;;;;;;;;;;;;;;;19.77;39.83;95558.31;10389509;28;2018;-62
2023/04/25 23:29:05;;;;;;;;;;;;;;;19.76;39.97;95562.03;10392452;28;1966;-62
2023/04/25 23:34:31;;;;;;;;;;;;;;;19.74;39.78;95554.38;10400635;28;1876;-62
2023/04/25 23:39:52;;;;;;;;;;;;;;;19.74;39.88;95543.09;10392267;28;1975;-62
2023/04/25 23:45:15;;;;;;;;;;;;;;;19.71;39.57;95551.53;10403869;28;1967;-62
2023/04/25 23:50:35;;;;;;;;;;;;;;;19.70;39.84;95566.50;10397015;28;1815;-62
2023/04/25 23:55:56;;;;;;;;;;;;;;;19.71;39.75;95562.03;10395820;28;2053;-62
